Shirley Basin, Wyoming
Current Conditions -  °F | °C
As of 3:53 PM on Saturday 25 Oct 2014 (Local Time) from KCPR Reporting Station
Clear Clear  
Wind Chill: 76°   Ceiling: Unl
Heat Index: 76°   Visibility: 10mi
Dew Point: 21°   Wind: 24mph
Humidity: 13%   Direction: 210°SSW
Pressure: 30.01"   Gusts: 29mph
Location:  42.85°N, 106.31°W
Report Text: KCPR 252153Z 21021G25KT 10SM CLR 24/M06 A3001 RMK AO2 PK WND 20028/2137 SLP112 T02441061
Loading
Personal Weather Stations






























Interactive Weather Map
Tropical Storm Tracking
New forecast layout! Learn more

10-Day Weather Forecast

Advertisements
Track Severe Weather on mobile